createdAt,value
2023-05-05T00:01:42.143Z,100584.70
2023-05-05T00:04:10.710Z,100583.73
2023-05-05T00:06:39.677Z,100584.08
2023-05-05T00:09:08.556Z,100581.66
2023-05-05T00:11:37.762Z,100579.29
2023-05-05T00:14:07.053Z,100578.52
2023-05-05T00:16:35.766Z,100581.66
2023-05-05T00:19:04.633Z,100577.85
2023-05-05T00:21:33.532Z,100582.29
2023-05-05T00:24:03.585Z,100581.98
2023-05-05T00:26:32.334Z,100583.09
2023-05-05T00:29:01.533Z,100582.77
2023-05-05T00:31:30.664Z,100584.69
2023-05-05T00:33:59.410Z,100586.74
2023-05-05T00:36:28.917Z,100585.72
2023-05-05T00:38:57.486Z,100586.16
2023-05-05T00:41:26.499Z,100579.11
2023-05-05T00:43:55.799Z,100576.95
2023-05-05T00:46:27.450Z,100578.92
2023-05-05T00:48:57.214Z,100577.41
2023-05-05T00:51:26.979Z,100571.81
2023-05-05T00:53:55.761Z,100569.80
2023-05-05T00:56:27.742Z,100566.44
2023-05-05T00:58:56.833Z,100568.88
2023-05-05T01:01:26.237Z,100565.34
2023-05-05T01:03:56.061Z,100565.02
2023-05-05T01:07:02.603Z,100563.95
2023-05-05T01:09:56.153Z,100563.30
2023-05-05T01:12:39.022Z,100563.30
2023-05-05T01:15:31.113Z,100560.64
2023-05-05T01:18:08.717Z,100559.57
2023-05-05T01:21:06.577Z,100556.70
2023-05-05T01:24:00.267Z,100548.38
2023-05-05T01:26:47.677Z,100548.58
2023-05-05T01:29:52.018Z,100547.05
2023-05-05T01:32:27.672Z,100542.94
2023-05-05T01:35:02.852Z,100540.60
2023-05-05T01:38:13.882Z,100543.03
2023-05-05T01:41:05.810Z,100542.16
2023-05-05T01:43:36.036Z,100541.18
2023-05-05T01:46:06.536Z,100539.78
2023-05-05T01:48:35.654Z,100540.53
2023-05-05T01:51:06.123Z,100538.82
2023-05-05T01:53:36.065Z,100537.96
2023-05-05T01:56:05.590Z,100536.59
2023-05-05T01:58:35.289Z,100534.29
2023-05-05T02:01:04.532Z,100540.64
2023-05-05T02:03:34.357Z,100539.83
2023-05-05T02:06:03.450Z,100538.08
2023-05-05T02:08:32.701Z,100539.89
2023-05-05T02:11:01.579Z,100542.77
2023-05-05T02:13:32.921Z,100543.11
2023-05-05T02:16:02.089Z,100539.89
2023-05-05T02:18:36.457Z,100539.30
2023-05-05T02:21:05.749Z,100534.52
2023-05-05T02:23:34.566Z,100539.58
2023-05-05T02:26:08.150Z,100537.35
2023-05-05T02:28:49.837Z,100535.09
2023-05-05T02:31:21.798Z,100533.95
2023-05-05T02:33:51.524Z,100526.15
2023-05-05T02:36:23.317Z,100526.75
2023-05-05T02:39:03.769Z,100523.23
2023-05-05T02:41:36.925Z,100525.80
2023-05-05T02:44:11.144Z,100524.09
2023-05-05T02:46:40.671Z,100522.20
2023-05-05T02:49:09.529Z,100517.63
2023-05-05T02:51:39.150Z,100512.90
2023-05-05T02:54:10.501Z,100510.48
2023-05-05T02:56:49.462Z,100512.27
2023-05-05T02:59:39.611Z,100516.95
2023-05-05T03:02:29.307Z,100521.19
2023-05-05T03:05:03.618Z,100520.95
2023-05-05T03:07:39.615Z,100528.51
2023-05-05T03:10:14.539Z,100531.21
2023-05-05T03:13:07.616Z,100530.34
2023-05-05T03:15:51.987Z,100534.20
2023-05-05T03:18:23.934Z,100531.05
2023-05-05T03:20:58.453Z,100535.25
2023-05-05T03:23:27.579Z,100543.17
2023-05-05T03:25:59.116Z,100548.91
2023-05-05T03:28:31.644Z,100550.24
2023-05-05T03:31:03.779Z,100548.98
2023-05-05T03:33:33.005Z,100548.90
2023-05-05T03:36:02.497Z,100548.19
2023-05-05T03:38:31.490Z,100551.73
2023-05-05T03:41:04.036Z,100550.66
2023-05-05T03:43:33.044Z,100549.73
2023-05-05T03:46:02.459Z,100548.33
2023-05-05T03:48:32.157Z,100546.91
2023-05-05T03:51:01.242Z,100556.52
2023-05-05T03:53:31.052Z,100556.29
2023-05-05T03:56:01.794Z,100562.00
2023-05-05T03:58:30.364Z,100565.30
2023-05-05T04:00:59.058Z,100565.98
2023-05-05T04:03:27.876Z,100569.61
2023-05-05T04:05:57.158Z,100571.23
2023-05-05T04:08:26.335Z,100572.97
2023-05-05T04:10:55.145Z,100570.74
2023-05-05T04:13:24.642Z,100573.34
2023-05-05T04:15:53.455Z,100579.98
2023-05-05T04:18:22.520Z,100579.61
2023-05-05T04:20:51.920Z,100576.13
2023-05-05T04:23:21.144Z,100573.77
2023-05-05T04:25:50.423Z,100572.48
2023-05-05T04:28:21.826Z,100568.31
2023-05-05T04:30:50.956Z,100567.25
2023-05-05T04:33:20.685Z,100564.55
2023-05-05T04:35:50.699Z,100568.88
2023-05-05T04:38:21.254Z,100568.06
2023-05-05T04:40:50.325Z,100564.83
2023-05-05T04:43:20.440Z,100561.08
2023-05-05T04:45:56.130Z,100561.10
2023-05-05T04:48:27.730Z,100568.25
2023-05-05T04:50:56.307Z,100572.53
2023-05-05T04:53:25.424Z,100574.36
2023-05-05T04:55:55.246Z,100574.27
2023-05-05T04:58:24.105Z,100576.60
2023-05-05T05:00:52.924Z,100575.69
2023-05-05T05:03:21.824Z,100575.48
2023-05-05T05:05:51.099Z,100574.95
2023-05-05T05:08:19.905Z,100577.29
2023-05-05T05:10:48.682Z,100574.95
2023-05-05T05:13:17.834Z,100574.04
2023-05-05T05:15:46.757Z,100577.25
2023-05-05T05:18:15.759Z,100576.55
2023-05-05T05:20:44.634Z,100577.49
2023-05-05T05:23:13.441Z,100581.55
2023-05-05T05:25:44.382Z,100583.73
2023-05-05T05:28:13.654Z,100590.21
2023-05-05T05:30:47.176Z,100596.09
2023-05-05T05:33:16.905Z,100596.45
2023-05-05T05:35:46.894Z,100599.48
2023-05-05T05:38:16.222Z,100596.27
2023-05-05T05:40:45.200Z,100605.24
2023-05-05T05:43:14.700Z,100601.72
2023-05-05T05:45:43.817Z,100605.05
2023-05-05T05:48:12.462Z,100604.91
2023-05-05T05:50:41.381Z,100607.52
2023-05-05T05:53:11.178Z,100610.20
2023-05-05T05:55:40.414Z,100610.91
2023-05-05T05:58:09.355Z,100612.24
2023-05-05T06:00:38.248Z,100609.10
2023-05-05T06:03:08.478Z,100610.55
2023-05-05T06:05:39.297Z,100611.70
2023-05-05T06:08:08.717Z,100610.09
2023-05-05T06:10:42.097Z,100608.22
2023-05-05T06:13:14.290Z,100609.88
2023-05-05T06:15:45.635Z,100610.69
2023-05-05T06:18:15.007Z,100612.17
2023-05-05T06:20:43.996Z,100607.39
2023-05-05T06:23:13.616Z,100606.23
2023-05-05T06:25:46.432Z,100608.92
2023-05-05T06:28:15.386Z,100607.11
2023-05-05T06:30:43.962Z,100607.44
2023-05-05T06:33:12.964Z,100605.65
2023-05-05T06:35:41.971Z,100609.77
2023-05-05T06:38:10.905Z,100608.91
2023-05-05T06:40:39.532Z,100609.73
2023-05-05T06:43:09.146Z,100607.21
2023-05-05T06:45:43.891Z,100604.48
2023-05-05T06:48:13.894Z,100610.27
2023-05-05T06:50:43.116Z,100612.85
2023-05-05T06:53:12.193Z,100614.71
2023-05-05T06:55:44.553Z,100616.84
2023-05-05T06:58:13.554Z,100613.04
2023-05-05T07:00:42.676Z,100611.67
2023-05-05T07:03:11.388Z,100610.39
2023-05-05T07:05:40.320Z,100612.04
2023-05-05T07:08:09.634Z,100611.88
2023-05-05T07:10:39.712Z,100610.75
2023-05-05T07:13:08.909Z,100609.66
2023-05-05T07:15:38.262Z,100613.13
2023-05-05T07:18:07.331Z,100610.11
2023-05-05T07:20:36.334Z,100609.23
2023-05-05T07:23:05.644Z,100608.06
2023-05-05T07:25:36.014Z,100602.33
2023-05-05T07:28:04.854Z,100602.33
2023-05-05T07:30:34.682Z,100600.91
2023-05-05T07:33:04.276Z,100600.17
2023-05-05T07:35:33.401Z,100600.55
2023-05-05T07:38:02.141Z,100602.70
2023-05-05T07:40:30.864Z,100599.88
2023-05-05T07:43:00.136Z,100597.00
2023-05-05T07:45:31.984Z,100593.45
2023-05-05T07:48:00.759Z,100595.48
2023-05-05T07:50:29.600Z,100598.91
2023-05-05T07:53:10.889Z,100602.75
2023-05-05T07:55:43.552Z,100604.09
2023-05-05T07:58:12.545Z,100604.36
2023-05-05T08:00:41.309Z,100603.52
2023-05-05T08:03:12.004Z,100599.58
2023-05-05T08:05:41.038Z,100596.40
2023-05-05T08:08:10.231Z,100598.56
2023-05-05T08:10:40.038Z,100597.73
2023-05-05T08:13:09.584Z,100597.08
2023-05-05T08:15:38.366Z,100594.34
2023-05-05T08:18:07.382Z,100598.55
2023-05-05T08:20:37.060Z,100598.98
2023-05-05T08:23:05.605Z,100597.71
2023-05-05T08:25:34.456Z,100598.27
2023-05-05T08:28:03.341Z,100600.45
2023-05-05T08:30:32.398Z,100599.20
2023-05-05T08:33:01.047Z,100602.77
2023-05-05T08:35:29.967Z,100605.55
2023-05-05T08:37:59.242Z,100603.50
2023-05-05T08:40:34.404Z,100604.31
2023-05-05T08:43:03.851Z,100606.70
2023-05-05T08:45:33.153Z,100601.55
2023-05-05T08:48:05.422Z,100604.10
2023-05-05T08:50:37.142Z,100603.73
2023-05-05T08:53:11.032Z,100598.48
2023-05-05T08:56:02.084Z,100594.85
2023-05-05T08:58:38.907Z,100593.45
2023-05-05T09:01:11.743Z,100590.89
2023-05-05T09:03:42.289Z,100588.50
2023-05-05T09:06:11.489Z,100589.17
2023-05-05T09:08:40.429Z,100586.06
2023-05-05T09:11:09.207Z,100587.70
2023-05-05T09:16:24.005Z,100585.02
2023-05-05T09:19:02.481Z,100583.55
2023-05-05T09:21:31.397Z,100584.85
2023-05-05T09:24:11.544Z,100586.30
2023-05-05T09:26:43.911Z,100582.67
2023-05-05T09:29:23.200Z,100576.23
2023-05-05T09:32:12.947Z,100573.57
2023-05-05T09:34:41.939Z,100576.70
2023-05-05T09:37:10.613Z,100580.21
2023-05-05T09:39:54.596Z,100577.70
2023-05-05T09:42:23.704Z,100578.38
2023-05-05T09:44:52.455Z,100577.25
2023-05-05T09:47:29.047Z,100577.86
2023-05-05T09:49:59.277Z,100577.33
2023-05-05T09:52:31.254Z,100576.92
2023-05-05T09:55:00.678Z,100580.42
2023-05-05T09:57:35.728Z,100573.02
2023-05-05T10:00:07.314Z,100575.17
2023-05-05T10:02:39.029Z,100574.76
2023-05-05T10:05:11.958Z,100580.95
2023-05-05T10:07:42.462Z,100571.92
2023-05-05T10:10:18.525Z,100573.85
2023-05-05T10:12:48.366Z,100566.26
2023-05-05T10:15:17.342Z,100572.34
2023-05-05T10:20:21.564Z,100565.75
2023-05-05T10:22:53.360Z,100571.15
2023-05-05T10:25:31.387Z,100569.48
2023-05-05T10:28:01.993Z,100567.80
2023-05-05T10:30:32.437Z,100565.56
2023-05-05T10:33:27.260Z,100565.38
2023-05-05T10:35:57.534Z,100563.95
2023-05-05T10:38:31.303Z,100558.14
2023-05-05T10:41:03.512Z,100559.76
2023-05-05T10:43:35.704Z,100558.63
2023-05-05T10:46:07.113Z,100556.52
2023-05-05T10:49:00.716Z,100556.45
2023-05-05T10:51:58.503Z,100551.84
2023-05-05T10:54:46.709Z,100549.06
2023-05-05T10:57:20.248Z,100554.21
2023-05-05T10:59:49.904Z,100552.00
2023-05-05T11:02:27.071Z,100547.10
2023-05-05T11:05:22.999Z,100546.18
2023-05-05T11:07:53.840Z,100543.10
2023-05-05T11:10:23.949Z,100546.73
2023-05-05T11:12:52.923Z,100547.48
2023-05-05T11:15:24.813Z,100542.30
2023-05-05T11:17:57.716Z,100539.48
2023-05-05T11:20:40.724Z,100534.95
2023-05-05T11:23:09.697Z,100526.52
2023-05-05T11:25:41.244Z,100525.98
2023-05-05T11:28:16.934Z,100523.98
2023-05-05T11:30:56.315Z,100519.30
2023-05-05T11:33:30.506Z,100513.50
2023-05-05T11:36:06.082Z,100509.27
2023-05-05T11:39:12.472Z,100507.60
2023-05-05T11:42:10.921Z,100503.86
2023-05-05T11:44:39.959Z,100503.73
2023-05-05T11:47:10.569Z,100509.85
2023-05-05T11:49:40.259Z,100505.34
2023-05-05T11:52:14.012Z,100506.81
2023-05-05T11:54:50.885Z,100498.33
2023-05-05T11:57:29.088Z,100501.98
2023-05-05T12:00:08.618Z,100499.95
2023-05-05T12:02:37.732Z,100494.73
2023-05-05T12:05:07.641Z,100496.33
2023-05-05T12:07:36.615Z,100491.04
2023-05-05T12:10:05.956Z,100492.64
2023-05-05T12:12:39.750Z,100497.88
2023-05-05T12:15:10.056Z,100493.86
2023-05-05T12:17:45.332Z,100492.17
2023-05-05T12:20:14.276Z,100494.16
2023-05-05T12:22:44.283Z,100487.38
2023-05-05T12:25:12.984Z,100491.96
2023-05-05T12:27:52.629Z,100489.02
2023-05-05T12:30:22.769Z,100489.08
2023-05-05T12:32:51.771Z,100488.42
2023-05-05T12:35:22.439Z,100490.09
2023-05-05T12:37:52.183Z,100486.84
2023-05-05T12:40:46.865Z,100481.02
2023-05-05T12:43:45.797Z,100479.70
2023-05-05T12:46:15.259Z,100482.10
2023-05-05T12:48:47.943Z,100477.20
2023-05-05T12:51:19.716Z,100474.15
2023-05-05T12:53:50.366Z,100471.34
2023-05-05T12:56:31.728Z,100472.04
2023-05-05T12:59:02.729Z,100473.40
2023-05-05T13:01:34.784Z,100472.86
2023-05-05T13:04:08.737Z,100467.46
2023-05-05T13:06:48.288Z,100463.73
2023-05-05T13:09:27.742Z,100463.77
2023-05-05T13:11:57.480Z,100461.02
2023-05-05T13:14:26.972Z,100451.96
2023-05-05T13:16:56.226Z,100447.51
2023-05-05T13:19:25.746Z,100448.94
2023-05-05T13:21:58.616Z,100448.47
2023-05-05T13:24:42.228Z,100448.88
2023-05-05T13:27:15.963Z,100447.01
2023-05-05T13:29:45.898Z,100447.02
2023-05-05T13:32:14.888Z,100444.27
2023-05-05T13:34:44.519Z,100442.34
2023-05-05T13:37:14.286Z,100436.12
2023-05-05T13:39:43.902Z,100436.36
2023-05-05T13:42:12.686Z,100435.45
2023-05-05T13:44:41.683Z,100430.65
2023-05-05T13:47:10.687Z,100433.69
2023-05-05T13:49:40.168Z,100431.34
2023-05-05T13:52:09.681Z,100425.99
2023-05-05T13:54:38.657Z,100422.32
2023-05-05T13:57:08.390Z,100421.23
2023-05-05T13:59:37.691Z,100414.99
2023-05-05T14:02:06.782Z,100408.67
2023-05-05T14:04:35.800Z,100402.66
2023-05-05T14:07:05.501Z,100399.58
2023-05-05T14:09:34.596Z,100396.85
2023-05-05T14:12:04.170Z,100395.95
2023-05-05T14:14:32.781Z,100396.27
2023-05-05T14:17:02.797Z,100396.44
2023-05-05T14:19:31.975Z,100391.91
2023-05-05T14:22:00.784Z,100386.77
2023-05-05T14:24:29.551Z,100384.96
2023-05-05T14:26:58.865Z,100386.64
2023-05-05T14:29:27.747Z,100384.55
2023-05-05T14:31:56.570Z,100384.73
2023-05-05T14:34:26.229Z,100384.02
2023-05-05T14:36:55.015Z,100386.35
2023-05-05T14:39:24.651Z,100386.55
2023-05-05T14:41:53.839Z,100383.02
2023-05-05T14:44:23.026Z,100382.60
2023-05-05T14:46:53.152Z,100377.46
2023-05-05T14:49:22.038Z,100375.63
2023-05-05T14:51:51.229Z,100374.47
2023-05-05T14:54:27.344Z,100373.54
2023-05-05T14:56:59.292Z,100375.48
2023-05-05T14:59:28.140Z,100371.42
2023-05-05T15:01:57.486Z,100369.14
2023-05-05T15:04:26.546Z,100370.34
2023-05-05T15:06:55.847Z,100371.11
2023-05-05T15:09:24.936Z,100367.38
2023-05-05T15:11:53.726Z,100367.29
2023-05-05T15:14:22.853Z,100365.14
2023-05-05T15:16:52.238Z,100361.04
2023-05-05T15:19:21.227Z,100354.79
2023-05-05T15:21:53.681Z,100353.76
2023-05-05T15:24:22.933Z,100350.70
2023-05-05T15:26:51.906Z,100349.75
2023-05-05T15:29:22.418Z,100343.73
2023-05-05T15:31:52.724Z,100341.95
2023-05-05T15:34:22.644Z,100345.22
2023-05-05T15:36:52.062Z,100343.41
2023-05-05T15:39:21.571Z,100345.48
2023-05-05T15:41:50.333Z,100342.13
2023-05-05T15:44:19.496Z,100346.92
2023-05-05T15:46:50.516Z,100346.48
2023-05-05T15:49:19.361Z,100344.27
2023-05-05T15:51:49.100Z,100347.84
2023-05-05T15:54:18.304Z,100342.42
2023-05-05T15:56:48.828Z,100337.77
2023-05-05T15:59:19.186Z,100338.04
2023-05-05T16:01:49.646Z,100333.45
2023-05-05T16:04:18.647Z,100330.00
2023-05-05T16:06:48.468Z,100334.70
2023-05-05T16:09:18.984Z,100336.77
2023-05-05T16:11:48.091Z,100334.28
2023-05-05T16:14:18.066Z,100331.91
2023-05-05T16:16:47.651Z,100327.56
2023-05-05T16:19:17.476Z,100328.58
2023-05-05T16:22:08.641Z,100326.04
2023-05-05T16:24:39.580Z,100322.87
2023-05-05T16:27:09.010Z,100322.59
2023-05-05T16:29:37.879Z,100318.50
2023-05-05T16:32:07.074Z,100319.64
2023-05-05T16:34:36.263Z,100313.86
2023-05-05T16:37:06.841Z,100310.97
2023-05-05T16:39:45.986Z,100309.83
2023-05-05T16:42:16.758Z,100310.37
2023-05-05T16:44:47.284Z,100309.81
2023-05-05T16:47:18.040Z,100310.01
2023-05-05T16:49:47.720Z,100309.48
2023-05-05T16:52:17.034Z,100305.63
2023-05-05T16:54:47.360Z,100307.70
2023-05-05T16:57:16.457Z,100307.83
2023-05-05T16:59:45.349Z,100311.81
2023-05-05T17:02:14.729Z,100308.91
2023-05-05T17:04:44.353Z,100313.88
2023-05-05T17:07:14.064Z,100314.16
2023-05-05T17:09:43.878Z,100317.59
2023-05-05T17:12:13.574Z,100317.01
2023-05-05T17:14:48.416Z,100316.36
2023-05-05T17:17:17.914Z,100316.25
2023-05-05T17:19:47.217Z,100322.75
2023-05-05T17:22:17.236Z,100324.22
2023-05-05T17:24:57.783Z,100327.48
2023-05-05T17:27:27.607Z,100327.59
2023-05-05T17:29:57.218Z,100330.30
2023-05-05T17:32:27.083Z,100335.33
2023-05-05T17:34:57.504Z,100331.05
2023-05-05T17:37:29.748Z,100332.45
2023-05-05T17:40:00.334Z,100333.64
2023-05-05T17:42:33.625Z,100334.16
2023-05-05T17:45:04.519Z,100335.00
2023-05-05T17:47:34.958Z,100335.16
2023-05-05T17:50:04.530Z,100336.24
2023-05-05T17:52:34.955Z,100340.21
2023-05-05T17:55:07.128Z,100339.62
2023-05-05T17:57:38.977Z,100340.98
2023-05-05T18:00:10.790Z,100339.48
2023-05-05T18:02:42.752Z,100339.70
2023-05-05T18:05:13.617Z,100341.04
2023-05-05T18:07:47.854Z,100343.66
2023-05-05T18:10:17.326Z,100339.48
2023-05-05T18:12:46.498Z,100344.42
2023-05-05T18:15:16.733Z,100345.02
2023-05-05T18:17:49.173Z,100347.79
2023-05-05T18:20:24.582Z,100346.34
2023-05-05T18:22:58.508Z,100343.92
2023-05-05T18:25:30.192Z,100345.88
2023-05-05T18:28:00.719Z,100346.77
2023-05-05T18:30:31.045Z,100351.65
2023-05-05T18:33:01.283Z,100358.42
2023-05-05T18:35:30.217Z,100364.00
2023-05-05T18:37:59.315Z,100366.62
2023-05-05T18:40:28.610Z,100369.73
2023-05-05T18:42:58.065Z,100379.41
2023-05-05T18:45:27.879Z,100381.40
2023-05-05T18:47:57.462Z,100379.07
2023-05-05T18:50:27.349Z,100380.83
2023-05-05T18:52:57.351Z,100383.62
2023-05-05T18:55:26.671Z,100385.38
2023-05-05T18:57:55.781Z,100390.41
2023-05-05T19:00:24.988Z,100389.95
2023-05-05T19:02:54.740Z,100391.41
2023-05-05T19:05:24.717Z,100387.51
2023-05-05T19:07:53.797Z,100383.89
2023-05-05T19:10:24.475Z,100390.48
2023-05-05T19:12:53.573Z,100385.31
2023-05-05T19:15:23.158Z,100386.03
2023-05-05T19:17:53.554Z,100391.68
2023-05-05T19:20:23.359Z,100393.33
2023-05-05T19:22:53.252Z,100396.21
2023-05-05T19:25:22.568Z,100390.02
2023-05-05T19:27:51.363Z,100389.52
2023-05-05T19:30:22.956Z,100387.52
2023-05-05T19:32:52.326Z,100384.77
2023-05-05T19:35:23.065Z,100379.52
2023-05-05T19:37:52.154Z,100374.35
2023-05-05T19:40:21.235Z,100373.06
2023-05-05T19:42:50.755Z,100374.05
2023-05-05T19:45:20.549Z,100381.77
2023-05-05T19:47:50.797Z,100377.08
2023-05-05T19:50:22.219Z,100379.40
2023-05-05T19:52:51.125Z,100379.27
2023-05-05T19:55:21.259Z,100375.96
2023-05-05T19:57:50.039Z,100375.88
2023-05-05T20:00:21.295Z,100374.31
2023-05-05T20:02:50.102Z,100381.77
2023-05-05T20:05:19.259Z,100383.27
2023-05-05T20:07:48.256Z,100376.86
2023-05-05T20:10:18.894Z,100378.31
2023-05-05T20:12:51.381Z,100377.95
2023-05-05T20:15:22.561Z,100374.56
2023-05-05T20:17:52.462Z,100373.97
2023-05-05T20:20:23.860Z,100368.08
2023-05-05T20:22:53.487Z,100366.19
2023-05-05T20:25:22.503Z,100363.11
2023-05-05T20:27:54.511Z,100361.77
2023-05-05T20:30:25.105Z,100359.02
2023-05-05T20:32:54.945Z,100354.15
2023-05-05T20:35:24.686Z,100350.96
2023-05-05T20:37:53.355Z,100346.43
2023-05-05T20:40:22.285Z,100342.53
2023-05-05T20:42:51.361Z,100345.32
2023-05-05T20:45:20.161Z,100343.23
2023-05-05T20:47:49.151Z,100338.54
2023-05-05T20:50:21.021Z,100337.70
2023-05-05T20:52:50.086Z,100340.29
2023-05-05T20:55:18.906Z,100335.46
2023-05-05T20:57:48.799Z,100333.05
2023-05-05T21:00:20.949Z,100332.66
2023-05-05T21:02:50.876Z,100329.77
2023-05-05T21:05:20.168Z,100326.27
2023-05-05T21:07:49.177Z,100326.55
2023-05-05T21:10:18.368Z,100326.59
2023-05-05T21:12:47.925Z,100328.09
2023-05-05T21:15:17.177Z,100333.50
2023-05-05T21:17:46.092Z,100333.16
2023-05-05T21:20:16.304Z,100332.23
2023-05-05T21:22:46.304Z,100331.30
2023-05-05T21:25:19.500Z,100332.20
2023-05-05T21:27:48.951Z,100327.91
2023-05-05T21:30:18.213Z,100325.16
2023-05-05T21:32:47.135Z,100326.84
2023-05-05T21:35:16.311Z,100322.52
2023-05-05T21:37:45.604Z,100320.69
2023-05-05T21:40:16.577Z,100324.11
2023-05-05T21:42:45.311Z,100322.27
2023-05-05T21:45:14.624Z,100323.92
2023-05-05T21:47:43.782Z,100329.53
2023-05-05T21:50:12.815Z,100332.52
2023-05-05T21:52:42.045Z,100331.39
2023-05-05T21:55:11.601Z,100329.23
2023-05-05T21:57:40.427Z,100329.17
2023-05-05T22:00:10.257Z,100331.58
2023-05-05T22:02:46.465Z,100332.21
2023-05-05T22:05:15.689Z,100329.78
2023-05-05T22:07:44.455Z,100330.46
2023-05-05T22:10:13.132Z,100335.34
2023-05-05T22:12:41.987Z,100339.62
2023-05-05T22:15:11.705Z,100338.11
2023-05-05T22:17:40.637Z,100338.50
2023-05-05T22:20:10.822Z,100328.92
2023-05-05T22:22:39.934Z,100324.67
2023-05-05T22:25:09.510Z,100318.27
2023-05-05T22:27:39.258Z,100319.33
2023-05-05T22:30:09.519Z,100318.50
2023-05-05T22:32:39.266Z,100320.73
2023-05-05T22:35:09.604Z,100314.58
2023-05-05T22:37:38.399Z,100310.08
2023-05-05T22:40:10.517Z,100307.33
2023-05-05T22:42:39.480Z,100306.13
2023-05-05T22:45:10.305Z,100310.44
2023-05-05T22:47:39.558Z,100311.64
2023-05-05T22:50:10.061Z,100316.85
2023-05-05T22:52:39.234Z,100320.70
2023-05-05T22:55:09.347Z,100320.64
2023-05-05T22:57:38.652Z,100318.67
2023-05-05T23:00:11.702Z,100318.79
2023-05-05T23:02:40.691Z,100321.02
2023-05-05T23:05:10.338Z,100324.42
2023-05-05T23:07:39.450Z,100323.16
2023-05-05T23:10:09.166Z,100324.15
2023-05-05T23:12:38.755Z,100320.34
2023-05-05T23:15:08.556Z,100320.57
2023-05-05T23:17:37.524Z,100317.91
2023-05-05T23:20:09.843Z,100315.60
2023-05-05T23:22:38.416Z,100315.86
2023-05-05T23:25:08.543Z,100315.47
2023-05-05T23:27:40.562Z,100312.67
2023-05-05T23:30:09.901Z,100312.08
2023-05-05T23:32:38.602Z,100311.63
2023-05-05T23:35:08.159Z,100306.70
2023-05-05T23:37:37.086Z,100302.46
2023-05-05T23:40:07.239Z,100296.80
2023-05-05T23:42:36.405Z,100288.02
2023-05-05T23:45:06.264Z,100284.36
2023-05-05T23:47:35.289Z,100279.34
2023-05-05T23:50:04.678Z,100280.91
2023-05-05T23:52:33.599Z,100278.40
2023-05-05T23:55:02.476Z,100272.48
2023-05-05T23:57:31.373Z,100268.41
